Melody — 3FBS7 — position and weather

sailwx.info

Track history (hours):
 
Tides and Currents Weather Stations Pressure Air Temp Water Temp Dewpoint Dewpoint Depression Visibility Wind Speed Wind Dir Waves Ship Positions

Melody

Operator: Mediterranean Shipping Company

Last reported at 2018-Apr-13 18:49 UTC. Time now 2018-Apr-22 13:54 UTC.
Position N 25°55' W 079°30'.
Warning: this ship's position is 8 days out of date.

Length 225 m; draft 11.7 m.

Type: Tanker. MMSI: 371669000.

Date/timePositionNaut miles runAvg speedWind from/ knotsBaromVisibWave heightAir tempDewpointWater temp
2018-Apr-13 18:49N 25°55' W 079°30'718.5
2018-Apr-13 18:26N 25°48' W 079°31'1018.2
2018-Apr-13 17:51N 25°37' W 079°31'  
2018-Apr-10 22:34N 29°22' W 094°48'111.6
2018-Apr-10 22:30N 29°23' W 094°48'510.7
2018-Apr-10 22:00N 29°28' W 094°51'510.5
2018-Apr-10 21:30N 29°32' W 094°54'510.5
2018-Apr-10 21:01N 29°37' W 094°57'5 9.3
2018-Apr-10 20:30N 29°41' W 094°59'4 7.8
2018-Apr-10 20:00N 29°44' W 095°02'3 6.9
2018-Apr-10 19:30N 29°45' W 095°06'2 4.5
2018-Apr-10 19:00N 29°44' W 095°08'0 0.0
2018-Apr-08 19:28N 29°44' W 095°08'1 1.3
2018-Apr-08 19:00N 29°44' W 095°07'3 5.6
2018-Apr-08 18:30N 29°45' W 095°04'4 7.7
2018-Apr-08 18:00N 29°43' W 095°01'511.0
2018-Apr-08 17:30N 29°38' W 094°58'612.6
2018-Apr-08 17:00N 29°33' W 094°54'713.9
2018-Apr-08 16:30N 29°26' W 094°50'714.1
2018-Apr-08 15:59N 29°21' W 094°45'2113.1
2018-Apr-08 14:23N 29°09' W 094°25'  
Track history (hours):
 
Tides and Currents Weather Stations Pressure Air Temp Water Temp Dewpoint Dewpoint Depression Visibility Wind Speed Wind Dir Waves Ship Positions

Melody

Operator: Mediterranean Shipping Company

Last reported at 2018-Apr-13 18:49 UTC. Time now 2018-Apr-22 13:54 UTC.
Position N 25°55' W 079°30'.
Warning: this ship's position is 8 days out of date.

Length 225 m; draft 11.7 m.

Type: Tanker. MMSI: 371669000.

Date/timePositionNaut miles runAvg speedWind from/ knotsBaromVisibWave heightAir tempDewpointWater temp
2018-Apr-13 18:49N 25°55' W 079°30'718.5
2018-Apr-13 18:26N 25°48' W 079°31'1018.2
2018-Apr-13 17:51N 25°37' W 079°31'  
2018-Apr-10 22:34N 29°22' W 094°48'111.6
2018-Apr-10 22:30N 29°23' W 094°48'510.7
2018-Apr-10 22:00N 29°28' W 094°51'510.5
2018-Apr-10 21:30N 29°32' W 094°54'510.5
2018-Apr-10 21:01N 29°37' W 094°57'5 9.3
2018-Apr-10 20:30N 29°41' W 094°59'4 7.8
2018-Apr-10 20:00N 29°44' W 095°02'3 6.9
2018-Apr-10 19:30N 29°45' W 095°06'2 4.5
2018-Apr-10 19:00N 29°44' W 095°08'0 0.0
2018-Apr-08 19:28N 29°44' W 095°08'1 1.3
2018-Apr-08 19:00N 29°44' W 095°07'3 5.6
2018-Apr-08 18:30N 29°45' W 095°04'4 7.7
2018-Apr-08 18:00N 29°43' W 095°01'511.0
2018-Apr-08 17:30N 29°38' W 094°58'612.6
2018-Apr-08 17:00N 29°33' W 094°54'713.9
2018-Apr-08 16:30N 29°26' W 094°50'714.1
2018-Apr-08 15:59N 29°21' W 094°45'2113.1
2018-Apr-08 14:23N 29°09' W 094°25'  

Dump ship's entire track history